Sevier River near Sigurd




Date Battery Voltage (V) Panel Temperature (degC) River Stage (ft) River Discharge (cfs)
05/01/2018 13.35 11.64 1.40 57
05/02/2018 13.29 9.21 0.97 24
05/03/2018 13.42 13.93 0.96 23
05/04/2018 13.42 16.58 0.93 22
05/05/2018 13.37 19.70 0.83 16
05/06/2018 13.37 20.41 0.82 16
05/07/2018 13.34 21.70 0.81 16
05/08/2018 13.34 21.37 0.80 15
05/09/2018 13.31 21.81 0.79 15
05/10/2018 13.34 23.30 0.79 15
05/11/2018 13.34 15.41 1.05 29
05/12/2018 13.36 13.05 1.13 34
05/13/2018 13.40 11.92 1.12 33
05/14/2018 13.41 15.19 1.12 33
05/15/2018 13.38 19.64 1.12 33
05/16/2018 13.32 18.10 1.07 30
05/17/2018 13.38 18.68 1.02 26
05/18/2018 13.39 18.05 1.01 26
05/19/2018 13.34 19.02 1.00 26
05/20/2018 13.33 16.54 1.00 26
05/21/2018 13.37 18.88 1.00 25
05/22/2018 13.26 16.94 1.01 26
05/23/2018 13.33 19.13 1.05 28
05/24/2018 13.34 22.58 1.15 35
05/25/2018 13.35 22.74 1.20 39
05/26/2018 13.32 20.86 1.24 41
05/27/2018 13.31 17.78 1.23 41
05/28/2018 13.37 15.47 1.21 39
05/29/2018 13.41 18.67 1.26 44
05/30/2018 13.38 20.73 1.66 82
05/31/2018 13.36 21.42 1.69 87
Average 32
Maximum 87
Minimum 15
Total Volume (AF) 1,987